createdAt,value
2023-03-02T00:01:08.351Z,5.51
2023-03-02T00:03:36.293Z,5.55
2023-03-02T00:06:03.614Z,5.50
2023-03-02T00:08:30.354Z,5.49
2023-03-02T00:10:57.413Z,5.51
2023-03-02T00:13:24.487Z,5.47
2023-03-02T00:15:51.658Z,5.44
2023-03-02T00:18:18.460Z,5.38
2023-03-02T00:20:45.531Z,5.35
2023-03-02T00:23:12.266Z,5.34
2023-03-02T00:25:40.216Z,5.27
2023-03-02T00:28:06.970Z,5.30
2023-03-02T00:30:34.058Z,5.23
2023-03-02T00:33:00.844Z,5.28
2023-03-02T00:35:28.025Z,5.24
2023-03-02T00:37:54.792Z,5.18
2023-03-02T00:40:21.836Z,5.18
2023-03-02T00:42:48.601Z,5.19
2023-03-02T00:45:15.720Z,5.12
2023-03-02T00:47:42.575Z,5.11
2023-03-02T00:50:10.515Z,5.05
2023-03-02T00:52:37.307Z,5.09
2023-03-02T00:55:04.708Z,5.02
2023-03-02T00:57:31.465Z,4.97
2023-03-02T00:59:58.679Z,5.01
2023-03-02T01:02:25.596Z,4.99
2023-03-02T01:04:53.386Z,4.93
2023-03-02T01:07:26.300Z,4.88
2023-03-02T01:09:53.332Z,4.89
2023-03-02T01:12:20.150Z,4.84
2023-03-02T01:14:48.018Z,4.86
2023-03-02T01:17:14.952Z,4.85
2023-03-02T01:19:42.126Z,4.78
2023-03-02T01:22:09.186Z,4.79
2023-03-02T01:24:36.210Z,4.80
2023-03-02T01:27:02.994Z,4.73
2023-03-02T01:29:30.055Z,4.69
2023-03-02T01:31:56.992Z,4.73
2023-03-02T01:34:24.141Z,4.70
2023-03-02T01:36:51.225Z,4.72
2023-03-02T01:39:18.470Z,4.69
2023-03-02T01:41:45.872Z,4.65
2023-03-02T01:44:57.261Z,4.60
2023-03-02T01:47:31.238Z,4.56
2023-03-02T01:49:59.178Z,4.56
2023-03-02T01:52:26.425Z,4.53
2023-03-02T01:54:53.949Z,4.54
2023-03-02T01:57:23.228Z,4.53
2023-03-02T01:59:51.048Z,4.44
2023-03-02T02:02:17.805Z,4.45
2023-03-02T02:04:45.287Z,4.41
2023-03-02T02:07:12.053Z,4.42
2023-03-02T02:09:41.606Z,4.33
2023-03-02T02:12:13.787Z,4.36
2023-03-02T02:14:40.941Z,4.37
2023-03-02T02:17:07.774Z,4.35
2023-03-02T02:20:07.296Z,4.26
2023-03-02T02:22:40.261Z,4.32
2023-03-02T02:25:14.966Z,4.25
2023-03-02T02:27:47.374Z,4.22
2023-03-02T02:30:14.471Z,4.26
2023-03-02T02:32:41.408Z,4.20
2023-03-02T02:35:15.428Z,4.17
2023-03-02T02:37:43.181Z,4.16
2023-03-02T02:40:38.397Z,4.13
2023-03-02T02:43:05.176Z,4.13
2023-03-02T02:45:32.271Z,4.05
2023-03-02T02:47:59.316Z,4.07
2023-03-02T02:50:29.958Z,4.08
2023-03-02T02:53:01.468Z,4.00
2023-03-02T02:55:28.556Z,3.96
2023-03-02T02:57:57.475Z,4.00
2023-03-02T03:00:24.557Z,4.00
2023-03-02T03:03:00.295Z,4.00
2023-03-02T03:05:27.478Z,3.98
2023-03-02T03:08:09.638Z,3.91
2023-03-02T03:10:40.080Z,3.89
2023-03-02T03:13:10.336Z,3.90
2023-03-02T03:15:37.361Z,3.84
2023-03-02T03:18:04.340Z,3.87
2023-03-02T03:20:31.445Z,3.79
2023-03-02T03:23:00.533Z,3.78
2023-03-02T03:25:27.675Z,3.78
2023-03-02T03:27:54.414Z,3.74
2023-03-02T03:30:22.232Z,3.77
2023-03-02T03:32:49.016Z,3.74
2023-03-02T03:35:16.134Z,3.64
2023-03-02T03:37:43.469Z,3.66
2023-03-02T03:40:10.799Z,3.63
2023-03-02T03:42:38.050Z,3.62
2023-03-02T03:45:06.098Z,3.63
2023-03-02T03:47:32.877Z,3.61
2023-03-02T03:49:59.989Z,3.56
2023-03-02T03:52:32.732Z,3.56
2023-03-02T03:55:00.312Z,3.55
2023-03-02T03:57:27.732Z,3.54
2023-03-02T03:59:54.843Z,3.50
2023-03-02T04:02:21.748Z,3.49
2023-03-02T04:04:48.826Z,3.44
2023-03-02T04:07:15.710Z,3.41
2023-03-02T04:09:42.778Z,3.42
2023-03-02T04:12:09.842Z,3.41
2023-03-02T04:14:36.932Z,3.36
2023-03-02T04:17:05.514Z,3.40
2023-03-02T04:19:32.724Z,3.40
2023-03-02T04:22:01.814Z,3.36
2023-03-02T04:24:29.122Z,3.36
2023-03-02T04:26:55.843Z,3.31
2023-03-02T04:29:23.670Z,3.31
2023-03-02T04:31:50.545Z,3.30
2023-03-02T04:34:17.661Z,3.29
2023-03-02T04:36:44.460Z,3.28
2023-03-02T04:39:12.865Z,3.27
2023-03-02T04:41:39.625Z,3.29
2023-03-02T04:44:06.693Z,3.22
2023-03-02T04:46:34.655Z,3.24
2023-03-02T04:49:02.216Z,3.14
2023-03-02T04:51:31.174Z,3.16
2023-03-02T04:54:00.144Z,3.14
2023-03-02T04:56:26.986Z,3.19
2023-03-02T04:58:54.185Z,3.16
2023-03-02T05:01:20.974Z,3.13
2023-03-02T05:03:48.197Z,3.15
2023-03-02T05:06:15.213Z,3.08
2023-03-02T05:08:42.683Z,3.06
2023-03-02T05:11:22.319Z,3.08
2023-03-02T05:13:50.771Z,3.07
2023-03-02T05:16:18.169Z,3.07
2023-03-02T05:18:45.443Z,3.01
2023-03-02T05:21:12.413Z,3.03
2023-03-02T05:23:39.420Z,3.05
2023-03-02T05:26:06.164Z,2.98
2023-03-02T05:28:33.530Z,2.97
2023-03-02T05:31:00.459Z,2.96
2023-03-02T05:33:27.720Z,2.97
2023-03-02T05:35:54.561Z,2.95
2023-03-02T05:38:21.628Z,2.95
2023-03-02T05:40:48.517Z,2.94
2023-03-02T05:43:18.505Z,2.92
2023-03-02T05:45:45.357Z,2.87
2023-03-02T05:48:13.173Z,2.86
2023-03-02T05:50:40.275Z,2.85
2023-03-02T05:53:07.373Z,2.89
2023-03-02T05:55:37.245Z,2.84
2023-03-02T05:58:06.175Z,2.85
2023-03-02T06:00:32.992Z,2.88
2023-03-02T06:03:00.058Z,2.85
2023-03-02T06:05:26.967Z,2.86
2023-03-02T06:07:54.033Z,2.88
2023-03-02T06:10:20.865Z,2.86
2023-03-02T06:12:47.919Z,2.86
2023-03-02T06:15:14.677Z,2.86
2023-03-02T06:17:41.790Z,2.90
2023-03-02T06:20:11.835Z,2.90
2023-03-02T06:22:45.186Z,2.88
2023-03-02T06:25:14.028Z,2.90
2023-03-02T06:27:41.326Z,2.90
2023-03-02T06:30:09.704Z,2.93
2023-03-02T06:32:36.888Z,2.95
2023-03-02T06:35:04.821Z,2.98
2023-03-02T06:37:32.054Z,2.95
2023-03-02T06:39:59.002Z,2.94
2023-03-02T06:42:26.660Z,2.94
2023-03-02T06:44:55.096Z,3.02
2023-03-02T06:47:22.824Z,3.03
2023-03-02T06:49:49.612Z,3.11
2023-03-02T06:52:16.794Z,3.12
2023-03-02T06:54:43.638Z,3.18
2023-03-02T06:57:10.687Z,3.21
2023-03-02T06:59:37.436Z,3.23
2023-03-02T07:02:04.520Z,3.25
2023-03-02T07:04:32.096Z,3.29
2023-03-02T07:06:59.156Z,3.34
2023-03-02T07:09:25.978Z,3.36
2023-03-02T07:11:53.026Z,3.43
2023-03-02T07:14:19.745Z,3.45
2023-03-02T07:16:46.915Z,3.47
2023-03-02T07:19:16.392Z,3.55
2023-03-02T07:21:43.503Z,3.57
2023-03-02T07:24:10.386Z,3.63
2023-03-02T07:26:37.468Z,3.73
2023-03-02T07:29:04.263Z,3.77
2023-03-02T07:31:31.660Z,3.78
2023-03-02T07:33:58.788Z,3.82
2023-03-02T07:36:26.422Z,3.88
2023-03-02T07:38:53.244Z,3.93
2023-03-02T07:41:20.388Z,4.00
2023-03-02T07:43:47.123Z,4.08
2023-03-02T07:46:14.241Z,4.14
2023-03-02T07:48:41.039Z,4.19
2023-03-02T07:51:08.186Z,4.25
2023-03-02T07:53:36.280Z,4.31
2023-03-02T07:56:09.950Z,4.38
2023-03-02T07:58:36.802Z,4.45
2023-03-02T08:01:04.487Z,4.51
2023-03-02T08:03:31.288Z,4.56
2023-03-02T08:05:58.389Z,4.63
2023-03-02T08:08:25.219Z,4.73
2023-03-02T08:10:52.321Z,4.76
2023-03-02T08:13:19.078Z,4.84
2023-03-02T08:15:46.193Z,4.90
2023-03-02T08:18:12.985Z,4.99
2023-03-02T08:20:40.176Z,5.07
2023-03-02T08:23:07.017Z,5.15
2023-03-02T08:25:34.169Z,5.21
2023-03-02T08:28:00.900Z,5.28
2023-03-02T08:30:28.001Z,5.34
2023-03-02T08:32:54.815Z,5.41
2023-03-02T08:35:22.276Z,5.48
2023-03-02T08:37:49.397Z,5.54
2023-03-02T08:40:16.356Z,5.62
2023-03-02T08:42:43.445Z,5.69
2023-03-02T08:45:10.358Z,5.76
2023-03-02T08:47:37.664Z,5.86
2023-03-02T08:50:05.618Z,5.92
2023-03-02T08:52:34.543Z,6.00
2023-03-02T08:55:03.655Z,6.09
2023-03-02T08:57:31.058Z,6.19
2023-03-02T08:59:57.784Z,6.26
2023-03-02T09:02:24.898Z,6.34
2023-03-02T09:04:51.850Z,6.43
2023-03-02T09:07:18.982Z,6.51
2023-03-02T09:09:45.957Z,6.59
2023-03-02T09:12:12.999Z,6.69
2023-03-02T09:14:39.758Z,6.75
2023-03-02T09:17:06.839Z,6.84
2023-03-02T09:19:43.277Z,6.93
2023-03-02T09:22:11.477Z,7.02
2023-03-02T09:24:38.212Z,7.11
2023-03-02T09:27:05.281Z,7.18
2023-03-02T09:29:32.072Z,7.29
2023-03-02T09:31:59.284Z,7.38
2023-03-02T09:34:26.120Z,7.46
2023-03-02T09:36:53.214Z,7.55
2023-03-02T09:39:19.932Z,7.64
2023-03-02T09:42:43.457Z,7.75
2023-03-02T09:45:19.969Z,7.85
2023-03-02T09:47:53.992Z,7.93
2023-03-02T09:51:02.392Z,8.06
2023-03-02T09:54:02.835Z,8.15
2023-03-02T09:56:29.678Z,8.27
2023-03-02T09:59:23.999Z,8.35
2023-03-02T10:02:04.187Z,8.45
2023-03-02T10:04:34.353Z,8.56
2023-03-02T10:07:11.770Z,8.67
2023-03-02T10:09:39.248Z,8.75
2023-03-02T10:12:43.711Z,8.90
2023-03-02T10:15:15.243Z,9.03
2023-03-02T10:18:12.654Z,9.15
2023-03-02T10:21:00.068Z,9.27
2023-03-02T10:23:37.898Z,9.31
2023-03-02T10:26:36.049Z,9.47
2023-03-02T10:29:21.251Z,9.59
2023-03-02T10:31:52.764Z,9.71
2023-03-02T10:34:19.639Z,9.81
2023-03-02T10:36:47.768Z,9.89
2023-03-02T10:39:16.425Z,9.96
2023-03-02T10:41:47.265Z,10.00
2023-03-02T10:44:37.020Z,10.11
2023-03-02T10:47:05.073Z,10.18
2023-03-02T10:49:33.611Z,10.24
2023-03-02T10:52:15.214Z,10.30
2023-03-02T10:54:42.486Z,10.40
2023-03-02T10:57:28.494Z,10.46
2023-03-02T10:59:58.670Z,10.50
2023-03-02T11:02:27.608Z,10.53
2023-03-02T11:05:16.877Z,10.64
2023-03-02T11:08:02.210Z,10.70
2023-03-02T11:10:34.193Z,10.79
2023-03-02T11:13:01.995Z,10.84
2023-03-02T11:15:31.744Z,10.89
2023-03-02T11:18:06.072Z,10.95
2023-03-02T11:20:41.246Z,11.00
2023-03-02T11:23:36.523Z,11.08
2023-03-02T11:26:13.459Z,11.14
2023-03-02T11:29:16.080Z,11.19
2023-03-02T11:32:01.054Z,11.27
2023-03-02T11:34:42.865Z,11.33
2023-03-02T11:37:15.748Z,11.41
2023-03-02T11:39:55.870Z,11.46
2023-03-02T11:42:37.719Z,11.54
2023-03-02T11:45:14.108Z,11.64
2023-03-02T11:47:57.488Z,11.66
2023-03-02T11:50:28.366Z,11.73
2023-03-02T11:52:59.615Z,11.77
2023-03-02T11:55:27.852Z,11.84
2023-03-02T11:57:55.494Z,11.93
2023-03-02T12:00:30.486Z,11.97
2023-03-02T12:03:00.401Z,12.05
2023-03-02T12:05:29.401Z,12.06
2023-03-02T12:08:00.107Z,12.09
2023-03-02T12:10:36.988Z,12.12
2023-03-02T12:13:26.320Z,12.19
2023-03-02T12:15:56.075Z,12.32
2023-03-02T12:18:22.986Z,12.35
2023-03-02T12:21:00.172Z,12.38
2023-03-02T12:23:27.011Z,12.42
2023-03-02T12:26:05.067Z,12.47
2023-03-02T12:28:40.804Z,12.46
2023-03-02T12:31:10.454Z,12.48
2023-03-02T12:33:48.258Z,12.46
2023-03-02T12:36:21.383Z,12.52
2023-03-02T12:38:57.659Z,12.55
2023-03-02T12:41:31.242Z,12.62
2023-03-02T12:44:27.898Z,12.71
2023-03-02T12:46:56.409Z,12.80
2023-03-02T12:50:22.131Z,12.82
2023-03-02T12:53:03.500Z,12.88
2023-03-02T12:55:30.606Z,12.89
2023-03-02T12:57:59.956Z,12.94
2023-03-02T13:00:31.565Z,13.02
2023-03-02T13:02:59.118Z,13.05
2023-03-02T13:05:27.333Z,13.05
2023-03-02T13:08:03.765Z,13.09
2023-03-02T13:10:50.123Z,13.11
2023-03-02T13:13:28.379Z,13.12
2023-03-02T13:16:06.467Z,13.20
2023-03-02T13:18:34.635Z,13.25
2023-03-02T13:21:02.006Z,13.29
2023-03-02T13:23:29.830Z,13.35
2023-03-02T13:25:58.782Z,13.40
2023-03-02T13:28:36.385Z,13.42
2023-03-02T13:31:14.591Z,13.33
2023-03-02T13:33:44.596Z,13.39
2023-03-02T13:36:24.699Z,13.40
2023-03-02T13:38:53.364Z,13.48
2023-03-02T13:41:24.137Z,13.55
2023-03-02T13:43:51.300Z,13.59
2023-03-02T13:46:18.030Z,13.62
2023-03-02T13:49:11.041Z,13.60
2023-03-02T13:51:46.433Z,13.58
2023-03-02T13:54:22.254Z,13.59
2023-03-02T13:56:49.443Z,13.60
2023-03-02T13:59:17.872Z,13.62
2023-03-02T14:01:44.809Z,13.65
2023-03-02T14:04:12.731Z,13.69
2023-03-02T14:06:39.588Z,13.70
2023-03-02T14:09:06.667Z,13.70
2023-03-02T14:11:47.080Z,13.75
2023-03-02T14:14:18.215Z,13.77
2023-03-02T14:16:45.015Z,13.80
2023-03-02T14:19:18.361Z,13.81
2023-03-02T14:21:46.018Z,13.85
2023-03-02T14:24:13.160Z,13.81
2023-03-02T14:26:49.495Z,13.78
2023-03-02T14:29:23.737Z,13.83
2023-03-02T14:31:50.834Z,13.87
2023-03-02T14:37:06.731Z,13.88
2023-03-02T14:39:44.254Z,13.88
2023-03-02T14:42:15.101Z,13.88
2023-03-02T14:44:42.945Z,13.87
2023-03-02T14:47:10.412Z,13.87
2023-03-02T14:49:37.898Z,13.89
2023-03-02T14:52:25.051Z,13.90
2023-03-02T14:55:00.486Z,13.88
2023-03-02T14:57:28.976Z,13.89
2023-03-02T14:59:56.257Z,13.91
2023-03-02T15:02:26.138Z,13.88
2023-03-02T15:04:56.812Z,13.85
2023-03-02T15:07:24.719Z,13.87
2023-03-02T15:09:51.755Z,13.83
2023-03-02T15:12:18.504Z,13.85
2023-03-02T15:14:45.567Z,13.85
2023-03-02T15:17:12.407Z,13.82
2023-03-02T15:19:39.554Z,13.82
2023-03-02T15:22:06.315Z,13.80
2023-03-02T15:24:33.699Z,13.79
2023-03-02T15:27:00.593Z,13.76
2023-03-02T15:29:27.727Z,13.75
2023-03-02T15:31:54.733Z,13.75
2023-03-02T15:34:21.897Z,13.75
2023-03-02T15:36:48.773Z,13.75
2023-03-02T15:39:16.729Z,13.76
2023-03-02T15:41:43.548Z,13.73
2023-03-02T15:44:21.817Z,13.72
2023-03-02T15:46:49.686Z,13.72
2023-03-02T15:49:17.094Z,13.69
2023-03-02T15:51:43.884Z,13.66
2023-03-02T15:54:11.739Z,13.65
2023-03-02T15:56:44.079Z,13.63
2023-03-02T15:59:12.005Z,13.60
2023-03-02T16:01:38.874Z,13.55
2023-03-02T16:04:05.994Z,13.51
2023-03-02T16:06:32.763Z,13.47
2023-03-02T16:08:59.910Z,13.45
2023-03-02T16:11:26.711Z,13.44
2023-03-02T16:13:53.895Z,13.42
2023-03-02T16:16:20.821Z,13.38
2023-03-02T16:18:51.954Z,13.36
2023-03-02T16:21:18.832Z,13.35
2023-03-02T16:23:46.885Z,13.32
2023-03-02T16:26:15.216Z,13.28
2023-03-02T16:28:42.457Z,13.26
2023-03-02T16:31:11.584Z,13.23
2023-03-02T16:33:38.776Z,13.21
2023-03-02T16:36:06.104Z,13.16
2023-03-02T16:38:33.475Z,13.15
2023-03-02T16:41:00.200Z,13.09
2023-03-02T16:43:27.318Z,13.07
2023-03-02T16:45:54.174Z,13.04
2023-03-02T16:48:21.526Z,13.01
2023-03-02T16:50:55.849Z,12.97
2023-03-02T16:53:22.972Z,12.93
2023-03-02T16:55:50.583Z,12.88
2023-03-02T16:58:17.938Z,12.83
2023-03-02T17:00:44.766Z,12.80
2023-03-02T17:03:12.148Z,12.77
2023-03-02T17:05:42.756Z,12.71
2023-03-02T17:08:10.866Z,12.66
2023-03-02T17:10:37.792Z,12.61
2023-03-02T17:13:04.986Z,12.59
2023-03-02T17:15:31.769Z,12.54
2023-03-02T17:17:59.144Z,12.51
2023-03-02T17:20:26.520Z,12.45
2023-03-02T17:22:53.684Z,12.39
2023-03-02T17:25:20.484Z,12.33
2023-03-02T17:27:47.553Z,12.32
2023-03-02T17:30:14.676Z,12.30
2023-03-02T17:32:41.854Z,12.24
2023-03-02T17:35:09.670Z,12.19
2023-03-02T17:37:36.794Z,12.16
2023-03-02T17:40:04.644Z,12.10
2023-03-02T17:42:31.810Z,12.08
2023-03-02T17:44:58.540Z,12.03
2023-03-02T17:47:25.730Z,11.97
2023-03-02T17:49:52.591Z,11.94
2023-03-02T17:52:20.047Z,11.88
2023-03-02T17:54:46.826Z,11.85
2023-03-02T17:57:13.957Z,11.79
2023-03-02T17:59:40.696Z,11.73
2023-03-02T18:02:07.812Z,11.72
2023-03-02T18:04:35.027Z,11.69
2023-03-02T18:07:02.251Z,11.64
2023-03-02T18:09:29.026Z,11.60
2023-03-02T18:11:56.090Z,11.58
2023-03-02T18:14:24.044Z,11.50
2023-03-02T18:16:51.175Z,11.48
2023-03-02T18:19:18.001Z,11.46
2023-03-02T18:21:45.433Z,11.40
2023-03-02T18:24:12.167Z,11.38
2023-03-02T18:26:39.210Z,11.35
2023-03-02T18:29:06.010Z,11.29
2023-03-02T18:31:34.329Z,11.25
2023-03-02T18:34:01.861Z,11.22
2023-03-02T18:36:29.275Z,11.18
2023-03-02T18:38:56.086Z,11.12
2023-03-02T18:41:23.772Z,11.10
2023-03-02T18:43:50.635Z,11.05
2023-03-02T18:46:25.890Z,11.01
2023-03-02T18:48:53.100Z,10.97
2023-03-02T18:51:20.629Z,10.96
2023-03-02T18:53:47.781Z,10.92
2023-03-02T18:56:14.921Z,10.88
2023-03-02T18:58:41.736Z,10.84
2023-03-02T19:01:09.007Z,10.81
2023-03-02T19:03:37.120Z,10.75
2023-03-02T19:06:05.767Z,10.71
2023-03-02T19:08:32.724Z,10.69
2023-03-02T19:10:59.840Z,10.65
2023-03-02T19:13:26.623Z,10.62
2023-03-02T19:15:54.827Z,10.57
2023-03-02T19:18:22.936Z,10.52
2023-03-02T19:20:50.638Z,10.50
2023-03-02T19:23:21.881Z,10.47
2023-03-02T19:25:49.063Z,10.42
2023-03-02T19:28:16.030Z,10.39
2023-03-02T19:30:43.163Z,10.38
2023-03-02T19:33:10.011Z,10.31
2023-03-02T19:35:40.079Z,10.30
2023-03-02T19:38:07.213Z,10.28
2023-03-02T19:40:34.636Z,10.23
2023-03-02T19:43:01.660Z,10.21
2023-03-02T19:45:31.493Z,10.18
2023-03-02T19:47:59.029Z,10.17
2023-03-02T19:50:26.654Z,10.11
2023-03-02T19:52:54.909Z,10.09
2023-03-02T19:55:22.350Z,10.03
2023-03-02T19:57:51.566Z,10.01
2023-03-02T20:00:19.481Z,9.99
2023-03-02T20:02:47.265Z,9.96
2023-03-02T20:05:14.883Z,9.94
2023-03-02T20:07:42.179Z,9.90
2023-03-02T20:10:11.104Z,9.89
2023-03-02T20:12:37.867Z,9.79
2023-03-02T20:15:05.995Z,9.79
2023-03-02T20:17:33.854Z,9.79
2023-03-02T20:20:01.934Z,9.73
2023-03-02T20:22:28.715Z,9.70
2023-03-02T20:24:55.779Z,9.69
2023-03-02T20:27:22.748Z,9.67
2023-03-02T20:29:53.453Z,9.63
2023-03-02T20:32:21.482Z,9.60
2023-03-02T20:34:48.913Z,9.55
2023-03-02T20:37:16.010Z,9.55
2023-03-02T20:39:44.065Z,9.54
2023-03-02T20:42:11.873Z,9.51
2023-03-02T20:44:39.031Z,9.48
2023-03-02T20:47:10.841Z,9.46
2023-03-02T20:49:37.999Z,9.39
2023-03-02T20:52:05.205Z,9.41
2023-03-02T20:54:35.058Z,9.36
2023-03-02T20:57:01.956Z,9.36
2023-03-02T20:59:29.084Z,9.33
2023-03-02T21:01:55.878Z,9.28
2023-03-02T21:04:23.043Z,9.27
2023-03-02T21:06:50.492Z,9.25
2023-03-02T21:09:18.113Z,9.20
2023-03-02T21:11:45.986Z,9.18
2023-03-02T21:14:15.992Z,9.17
2023-03-02T21:16:43.554Z,9.16
2023-03-02T21:19:14.371Z,9.13
2023-03-02T21:21:42.580Z,9.08
2023-03-02T21:24:10.768Z,9.08
2023-03-02T21:26:37.716Z,9.05
2023-03-02T21:29:05.371Z,9.02
2023-03-02T21:31:32.324Z,9.01
2023-03-02T21:34:00.262Z,8.97
2023-03-02T21:36:27.217Z,8.96
2023-03-02T21:38:54.396Z,8.93
2023-03-02T21:41:21.297Z,8.86
2023-03-02T21:43:48.527Z,8.86
2023-03-02T21:46:17.372Z,8.72
2023-03-02T21:48:44.572Z,8.75
2023-03-02T21:51:12.324Z,8.73
2023-03-02T21:53:39.455Z,8.74
2023-03-02T21:56:06.789Z,8.62
2023-03-02T21:58:33.977Z,8.66
2023-03-02T22:01:00.907Z,8.64
2023-03-02T22:03:28.034Z,8.55
2023-03-02T22:05:54.785Z,8.54
2023-03-02T22:08:21.872Z,8.48
2023-03-02T22:10:50.307Z,8.46
2023-03-02T22:13:17.486Z,8.50
2023-03-02T22:15:45.551Z,8.45
2023-03-02T22:18:17.110Z,8.42
2023-03-02T22:20:45.182Z,8.41
2023-03-02T22:23:14.290Z,8.37
2023-03-02T22:25:41.889Z,8.34
2023-03-02T22:28:23.414Z,8.33
2023-03-02T22:30:53.907Z,8.30
2023-03-02T22:33:23.397Z,8.18
2023-03-02T22:35:51.098Z,8.21
2023-03-02T22:38:27.443Z,8.19
2023-03-02T22:40:54.307Z,8.15
2023-03-02T22:43:26.441Z,8.09
2023-03-02T22:45:53.991Z,8.10
2023-03-02T22:48:22.356Z,8.08
2023-03-02T22:50:49.837Z,8.04
2023-03-02T22:53:33.779Z,7.97
2023-03-02T22:56:02.545Z,7.98
2023-03-02T22:58:49.041Z,7.93
2023-03-02T23:01:26.418Z,7.91
2023-03-02T23:03:57.452Z,7.88
2023-03-02T23:06:25.476Z,7.82
2023-03-02T23:08:53.857Z,7.79
2023-03-02T23:11:21.926Z,7.74
2023-03-02T23:13:49.385Z,7.65
2023-03-02T23:16:20.535Z,7.68
2023-03-02T23:18:48.263Z,7.67
2023-03-02T23:21:20.722Z,7.58
2023-03-02T23:23:48.059Z,7.61
2023-03-02T23:26:14.911Z,7.66
2023-03-02T23:28:42.026Z,7.61
2023-03-02T23:31:08.814Z,7.55
2023-03-02T23:33:35.877Z,7.58
2023-03-02T23:36:02.598Z,7.53
2023-03-02T23:38:29.821Z,7.55
2023-03-02T23:40:56.549Z,7.45
2023-03-02T23:43:23.758Z,7.35
2023-03-02T23:45:50.615Z,7.36
2023-03-02T23:48:17.739Z,7.28
2023-03-02T23:50:44.939Z,7.30
2023-03-02T23:53:12.000Z,7.29
2023-03-02T23:55:39.514Z,7.28
2023-03-02T23:58:06.576Z,7.23
